Time;durP1;ratioP1;P1;durP2;ratioP2;P2;SDS_P1;SDS_P2;PMS_P1;PMS_P2;Temp;Humidity;BMP_temperature;BMP_pressure;BME280_temperature;BME280_humidity;BME280_pressure;Samples;Min_cycle;Max_cycle;Signal;HPM_P1;HPM_P2
2023/08/25 00:00:45;;;;;;;2.03;1.50;;;26.40;60.00;;;;;;5039109;28;20022;-66
2023/08/25 00:03:11;;;;;;;2.85;1.50;;;26.40;60.00;;;;;;5065028;28;20126;-67
2023/08/25 00:05:38;;;;;;;2.75;1.30;;;26.40;60.00;;;;;;5045826;28;20037;-63
2023/08/25 00:08:04;;;;;;;2.15;1.50;;;26.40;60.00;;;;;;5052071;28;20052;-65
2023/08/25 00:10:37;;;;;;;1.40;1.20;;;26.40;60.00;;;;;;5064871;28;20028;-65
2023/08/25 00:13:03;;;;;;;2.55;1.38;;;26.40;60.00;;;;;;5040121;28;20116;-64
2023/08/25 00:15:29;;;;;;;1.90;1.45;;;26.40;60.00;;;;;;5050861;28;20072;-63
2023/08/25 00:17:54;;;;;;;2.05;1.08;;;26.40;60.00;;;;;;5046733;28;20449;-64
2023/08/25 00:20:20;;;;;;;1.63;1.08;;;26.40;60.00;;;;;;5066822;28;20024;-64
2023/08/25 00:22:46;;;;;;;1.30;1.00;;;26.40;60.00;;;;;;5065227;28;20044;-64
2023/08/25 00:25:12;;;;;;;1.80;1.13;;;26.40;60.00;;;;;;5046300;28;20032;-64
2023/08/25 00:27:38;;;;;;;2.47;1.50;;;26.40;60.10;;;;;;5063763;28;20379;-63
2023/08/25 00:30:06;;;;;;;2.35;1.20;;;26.40;60.10;;;;;;5046253;28;20032;-65
2023/08/25 00:32:32;;;;;;;1.90;1.45;;;26.40;60.10;;;;;;5065541;28;20056;-62
2023/08/25 00:34:59;;;;;;;3.03;1.50;;;26.40;60.10;;;;;;5063852;28;20499;-64
2023/08/25 00:37:24;;;;;;;1.50;1.23;;;26.40;60.20;;;;;;5068053;28;20116;-63
2023/08/25 00:39:51;;;;;;;2.97;1.60;;;26.40;60.20;;;;;;5053031;28;20322;-61
2023/08/25 00:42:17;;;;;;;1.75;1.35;;;26.40;60.20;;;;;;5051071;28;20041;-63
2023/08/25 00:44:43;;;;;;;2.83;1.48;;;26.30;60.20;;;;;;5037312;28;20032;-62
2023/08/25 00:47:09;;;;;;;1.98;1.30;;;26.40;60.20;;;;;;5043368;28;20136;-64
2023/08/25 00:49:36;;;;;;;2.13;1.17;;;26.30;60.20;;;;;;5049190;28;20099;-63
2023/08/25 00:52:03;;;;;;;2.90;1.55;;;26.30;60.20;;;;;;5039052;28;20108;-63
2023/08/25 00:54:34;;;;;;;1.33;1.20;;;26.30;60.20;;;;;;5056198;28;20021;-65
2023/08/25 00:57:02;;;;;;;2.38;1.45;;;26.30;60.20;;;;;;5040943;28;20108;-63
2023/08/25 00:59:29;;;;;;;2.15;1.30;;;26.30;60.20;;;;;;5085750;28;20047;-62
2023/08/25 01:01:56;;;;;;;2.20;1.15;;;26.30;60.20;;;;;;5040319;28;20049;-63
2023/08/25 01:04:22;;;;;;;2.15;1.40;;;26.30;60.20;;;;;;5053313;28;20441;-64
2023/08/25 01:06:48;;;;;;;1.73;1.40;;;26.30;60.20;;;;;;5052365;28;20622;-65
2023/08/25 01:09:16;;;;;;;1.80;1.38;;;26.30;60.20;;;;;;5070085;28;20025;-65
2023/08/25 01:12:09;;;;;;;3.58;1.40;;;26.30;60.20;;;;;;5069375;28;20024;-65
2023/08/25 01:14:53;;;;;;;1.67;1.38;;;26.30;60.20;;;;;;5071794;28;20070;-62
2023/08/25 01:17:33;;;;;;;2.45;1.40;;;26.30;60.20;;;;;;5054001;28;20111;-65
2023/08/25 01:20:06;;;;;;;3.10;1.60;;;26.30;60.30;;;;;;5084380;28;20043;-65
2023/08/25 01:22:42;;;;;;;3.23;1.57;;;26.30;60.30;;;;;;5058860;28;20151;-67
2023/08/25 01:25:26;;;;;;;2.47;1.45;;;26.30;60.30;;;;;;5059843;28;20364;-65
2023/08/25 01:27:55;;;;;;;3.00;1.73;;;26.20;60.30;;;;;;5042404;28;20041;-65
2023/08/25 01:30:30;;;;;;;1.60;1.50;;;26.20;60.30;;;;;;5062322;28;20027;-66
2023/08/25 01:32:56;;;;;;;3.10;1.50;;;26.20;60.30;;;;;;5070301;28;20144;-67
2023/08/25 01:35:50;;;;;;;3.28;1.77;;;26.20;60.30;;;;;;5073566;28;20242;-66
2023/08/25 01:38:24;;;;;;;;;;;26.20;60.30;;;;;;5059693;28;20039;-63
2023/08/25 01:41:24;;;;;;;2.22;1.42;;;26.20;60.30;;;;;;5087548;28;19916;-64
2023/08/25 01:43:52;;;;;;;3.15;1.83;;;26.20;60.30;;;;;;5040055;28;20051;-66
2023/08/25 01:46:19;;;;;;;2.78;1.63;;;26.20;60.30;;;;;;5045887;28;20086;-65
2023/08/25 01:48:48;;;;;;;1.98;1.45;;;26.20;60.40;;;;;;5073104;28;20111;-65
2023/08/25 01:51:16;;;;;;;1.67;1.20;;;26.20;60.40;;;;;;5074413;28;20032;-64
2023/08/25 01:53:53;;;;;;;2.13;1.65;;;26.20;60.40;;;;;;5071848;28;20360;-64
2023/08/25 01:56:23;;;;;;;3.20;1.80;;;26.20;60.50;;;;;;5064860;28;20047;-63
2023/08/25 01:58:50;;;;;;;2.40;1.67;;;26.20;60.50;;;;;;5064259;28;20025;-64
2023/08/25 02:01:16;;;;;;;1.77;1.55;;;26.20;60.50;;;;;;5037269;28;20405;-65
2023/08/25 02:03:43;;;;;;;2.90;1.50;;;26.20;60.50;;;;;;5064352;28;20032;-65
2023/08/25 02:06:09;;;;;;;2.10;1.50;;;26.20;60.50;;;;;;5057204;28;20043;-64
2023/08/25 02:08:35;;;;;;;3.05;1.80;;;26.20;60.50;;;;;;5053150;28;20093;-64
2023/08/25 02:11:03;;;;;;;2.38;1.75;;;26.10;60.40;;;;;;5080102;28;20025;-65
2023/08/25 02:13:29;;;;;;;3.25;1.83;;;26.20;60.50;;;;;;5040902;28;20056;-64
2023/08/25 02:15:55;;;;;;;1.92;1.60;;;26.20;60.60;;;;;;5055764;28;20032;-64
2023/08/25 02:18:24;;;;;;;2.67;1.50;;;26.20;60.60;;;;;;5062745;28;20021;-66
2023/08/25 02:20:49;;;;;;;2.22;1.70;;;26.20;60.60;;;;;;5076967;28;20364;-65
2023/08/25 02:23:15;;;;;;;2.03;1.40;;;26.10;60.60;;;;;;5066855;28;20035;-67
2023/08/25 02:25:42;;;;;;;2.05;1.50;;;26.20;61.30;;;;;;5077669;28;20389;-64
2023/08/25 02:28:08;;;;;;;2.88;1.83;;;26.10;60.60;;;;;;5055123;28;20101;-64
2023/08/25 02:30:35;;;;;;;3.53;1.65;;;26.10;60.60;;;;;;5060436;28;20021;-64
2023/08/25 02:33:01;;;;;;;2.30;1.70;;;26.10;60.70;;;;;;5049636;28;20344;-63
2023/08/25 02:35:27;;;;;;;2.53;1.73;;;26.10;60.70;;;;;;5054069;28;20029;-66
2023/08/25 02:38:08;;;;;;;2.45;1.80;;;26.10;60.70;;;;;;5071518;28;20043;-64
2023/08/25 02:40:34;;;;;;;2.58;1.70;;;26.10;60.70;;;;;;5049265;28;20072;-65
2023/08/25 02:43:03;;;;;;;2.65;1.60;;;26.10;60.70;;;;;;5056611;28;20428;-63
2023/08/25 02:45:29;;;;;;;4.00;2.10;;;26.10;60.70;;;;;;5070668;28;20409;-64
2023/08/25 02:47:56;;;;;;;4.43;2.00;;;26.10;60.70;;;;;;5063584;28;20067;-66
2023/08/25 02:50:24;;;;;;;3.58;1.88;;;26.10;60.70;;;;;;5070347;28;20328;-64
2023/08/25 02:52:50;;;;;;;3.03;1.90;;;26.10;60.70;;;;;;5051257;28;20024;-64
2023/08/25 02:55:19;;;;;;;3.38;1.67;;;26.10;60.80;;;;;;5053750;28;20116;-66
2023/08/25 02:57:46;;;;;;;2.70;1.70;;;26.10;60.80;;;;;;5070646;28;20055;-63
2023/08/25 03:00:15;;;;;;;2.85;2.17;;;26.10;60.80;;;;;;5053142;28;20158;-63
2023/08/25 03:02:41;;;;;;;2.65;1.85;;;26.10;60.80;;;;;;5044074;28;20036;-64
2023/08/25 03:05:09;;;;;;;2.42;1.85;;;26.00;60.80;;;;;;5072838;28;20028;-64
2023/08/25 03:07:35;;;;;;;2.70;1.88;;;26.00;60.80;;;;;;5052512;28;20036;-65
2023/08/25 03:10:02;;;;;;;3.70;1.70;;;26.10;60.90;;;;;;5057415;28;20107;-64
2023/08/25 03:12:29;;;;;;;2.92;2.00;;;26.00;60.80;;;;;;5059692;28;20033;-63
2023/08/25 03:14:55;;;;;;;3.33;1.90;;;26.10;60.90;;;;;;5055385;28;20029;-64
2023/08/25 03:17:22;;;;;;;2.17;1.98;;;26.10;61.00;;;;;;5040814;28;20021;-66
2023/08/25 03:19:49;;;;;;;2.55;2.08;;;26.00;60.90;;;;;;5055995;28;20029;-65
2023/08/25 03:22:15;;;;;;;2.90;2.20;;;26.10;61.10;;;;;;5058616;28;20020;-64
2023/08/25 03:24:41;;;;;;;4.20;2.10;;;26.00;61.00;;;;;;5067505;28;20028;-67
2023/08/25 03:27:07;;;;;;;3.42;1.98;;;26.00;61.00;;;;;;5051056;28;20097;-66
2023/08/25 03:29:33;;;;;;;2.97;2.55;;;26.00;61.10;;;;;;5049175;28;20058;-64
2023/08/25 03:32:00;;;;;;;3.40;2.20;;;26.00;61.10;;;;;;5044329;28;20109;-63
2023/08/25 03:34:28;;;;;;;2.95;2.08;;;26.00;61.10;;;;;;5051051;28;20036;-63
2023/08/25 03:36:54;;;;;;;2.17;1.98;;;26.00;61.20;;;;;;5037226;28;20032;-65
2023/08/25 03:39:20;;;;;;;2.88;2.30;;;26.00;61.20;;;;;;5050722;28;20269;-65
2023/08/25 03:41:47;;;;;;;2.47;1.70;;;26.00;61.20;;;;;;5036230;28;20040;-64
2023/08/25 03:44:14;;;;;;;3.88;2.20;;;26.00;61.20;;;;;;5052911;28;20387;-65
2023/08/25 03:46:40;;;;;;;2.40;2.20;;;26.00;61.20;;;;;;5065335;28;20055;-64
2023/08/25 03:49:06;;;;;;;2.90;2.05;;;26.00;61.20;;;;;;5077688;28;20069;-63
2023/08/25 03:51:33;;;;;;;2.17;1.80;;;26.00;61.20;;;;;;5018145;28;20424;-64
2023/08/25 03:53:59;;;;;;;2.92;2.20;;;26.00;61.30;;;;;;5057834;28;20017;-63
2023/08/25 03:56:26;;;;;;;2.20;2.00;;;26.00;61.30;;;;;;5066213;28;20024;-65
2023/08/25 03:58:52;;;;;;;2.92;2.20;;;26.00;61.30;;;;;;5068983;28;20108;-64
2023/08/25 04:01:18;;;;;;;3.58;2.72;;;26.00;61.30;;;;;;5052672;28;20124;-63
2023/08/25 04:03:44;;;;;;;3.30;2.17;;;26.00;62.00;;;;;;5053613;28;20052;-65
2023/08/25 04:06:10;;;;;;;2.30;2.10;;;26.00;61.40;;;;;;5048236;28;20163;-64
2023/08/25 04:08:35;;;;;;;2.72;2.08;;;26.00;61.40;;;;;;5053021;28;20033;-63
2023/08/25 04:11:02;;;;;;;4.15;2.55;;;26.00;61.40;;;;;;5053572;28;20040;-64
2023/08/25 04:13:28;;;;;;;3.75;2.38;;;26.00;61.40;;;;;;5073123;28;20028;-65
2023/08/25 04:15:56;;;;;;;2.70;2.40;;;26.00;61.40;;;;;;5037074;28;20422;-62
2023/08/25 04:18:23;;;;;;;3.72;2.55;;;26.00;61.50;;;;;;5051353;28;20021;-66
2023/08/25 04:20:49;;;;;;;3.35;2.28;;;26.00;61.50;;;;;;5077419;28;20064;-65
2023/08/25 04:23:15;;;;;;;3.88;2.40;;;26.00;61.60;;;;;;5044569;28;20078;-65
2023/08/25 04:25:42;;;;;;;2.95;2.50;;;26.00;61.60;;;;;;5066101;28;20040;-65
2023/08/25 04:28:08;;;;;;;2.38;2.10;;;26.00;61.60;;;;;;5063975;28;20073;-63
2023/08/25 04:30:35;;;;;;;4.57;2.60;;;26.00;61.70;;;;;;5036489;28;20400;-66
2023/08/25 04:33:06;;;;;;;3.35;2.45;;;25.90;61.60;;;;;;5046741;28;20081;-66
2023/08/25 04:35:32;;;;;;;4.13;2.38;;;26.00;61.70;;;;;;5045289;28;20024;-63
2023/08/25 04:37:59;;;;;;;4.72;2.45;;;25.90;61.60;;;;;;5060479;28;20408;-64
2023/08/25 04:40:25;;;;;;;3.53;2.47;;;26.00;61.70;;;;;;5063053;28;20044;-64
2023/08/25 04:42:52;;;;;;;3.92;2.47;;;25.90;61.70;;;;;;5050441;28;20377;-66
2023/08/25 04:45:18;;;;;;;4.20;2.80;;;25.90;61.70;;;;;;5059711;28;20162;-63
2023/08/25 04:47:45;;;;;;;4.20;2.60;;;26.00;61.80;;;;;;5032239;28;20049;-63
2023/08/25 04:50:12;;;;;;;2.97;2.42;;;26.00;61.80;;;;;;5030175;28;20045;-65
2023/08/25 04:52:39;;;;;;;4.47;2.47;;;26.00;61.90;;;;;;5037976;28;20034;-62
2023/08/25 04:55:06;;;;;;;3.45;2.83;;;25.90;61.80;;;;;;5015451;28;20025;-66
2023/08/25 04:57:34;;;;;;;4.13;2.58;;;25.90;61.90;;;;;;5028542;28;20113;-64
2023/08/25 05:00:05;;;;;;;3.72;2.47;;;25.90;61.90;;;;;;5021959;28;20098;-65
2023/08/25 05:02:31;;;;;;;3.40;2.45;;;25.90;61.90;;;;;;5013638;28;20034;-64
2023/08/25 05:04:58;;;;;;;3.70;2.60;;;25.90;61.90;;;;;;5037319;28;20044;-63
2023/08/25 05:07:25;;;;;;;3.17;2.35;;;25.90;61.90;;;;;;5035926;28;20057;-65
2023/08/25 05:09:53;;;;;;;3.50;2.50;;;25.90;61.90;;;;;;5031001;28;20032;-63
2023/08/25 05:12:20;;;;;;;3.63;2.50;;;25.90;61.90;;;;;;5010060;28;20098;-66
2023/08/25 05:14:46;;;;;;;3.58;2.38;;;25.90;62.00;;;;;;5010371;28;20034;-66
2023/08/25 05:17:12;;;;;;;5.07;2.65;;;25.90;62.00;;;;;;5032471;28;20017;-63
2023/08/25 05:19:37;;;;;;;4.15;2.60;;;25.90;62.00;;;;;;5027194;28;20029;-65
2023/08/25 05:22:04;;;;;;;5.68;2.67;;;25.90;62.00;;;;;;5012684;28;20337;-65
2023/08/25 05:24:30;;;;;;;3.90;2.85;;;25.90;62.10;;;;;;5033541;28;20018;-65
2023/08/25 05:26:57;;;;;;;2.80;2.28;;;25.90;62.10;;;;;;5032633;28;20449;-67
2023/08/25 05:29:27;;;;;;;2.33;2.05;;;25.90;62.10;;;;;;5027251;28;20026;-66
2023/08/25 05:31:55;;;;;;;2.38;2.13;;;25.90;62.20;;;;;;5028369;28;20125;-64
2023/08/25 05:34:31;;;;;;;3.40;2.70;;;25.90;62.20;;;;;;5040901;28;20033;-64
2023/08/25 05:37:01;;;;;;;3.20;2.42;;;25.90;62.20;;;;;;5037762;28;20463;-66
2023/08/25 05:39:28;;;;;;;3.53;2.80;;;25.90;62.30;;;;;;5024325;28;20048;-64
2023/08/25 05:41:54;;;;;;;3.47;2.50;;;25.90;62.30;;;;;;5035603;28;20394;-63
2023/08/25 05:44:20;;;;;;;2.75;2.42;;;25.90;62.30;;;;;;5036688;28;20039;-65
2023/08/25 05:46:47;;;;;;;4.90;2.65;;;25.90;62.40;;;;;;5048208;28;20047;-65
2023/08/25 05:49:13;;;;;;;3.08;2.30;;;25.90;62.40;;;;;;5053433;28;20068;-64
2023/08/25 05:51:39;;;;;;;3.42;2.47;;;25.90;62.50;;;;;;5075005;28;20136;-61
2023/08/25 05:54:05;;;;;;;3.25;2.65;;;25.90;62.60;;;;;;5063820;28;20045;-62
2023/08/25 05:56:31;;;;;;;3.55;2.80;;;25.90;62.50;;;;;;5072865;28;20020;-63
2023/08/25 05:59:00;;;;;;;2.63;2.40;;;25.90;62.60;;;;;;5056166;28;20083;-64
2023/08/25 06:01:26;;;;;;;3.55;3.05;;;25.90;62.50;;;;;;5064399;28;20024;-63
2023/08/25 06:03:52;;;;;;;4.05;3.20;;;25.90;62.50;;;;;;5048049;28;20370;-62
2023/08/25 06:06:18;;;;;;;3.95;2.75;;;25.90;62.60;;;;;;5061754;28;20028;-65
2023/08/25 06:08:44;;;;;;;3.10;2.80;;;25.90;62.60;;;;;;5054161;28;20029;-66
2023/08/25 06:11:09;;;;;;;5.03;3.00;;;25.90;62.60;;;;;;5052663;28;20324;-65
2023/08/25 06:13:35;;;;;;;4.13;3.22;;;25.90;62.70;;;;;;5052254;28;20033;-63
2023/08/25 06:16:03;;;;;;;5.07;3.15;;;25.90;62.70;;;;;;5058828;28;20397;-62
2023/08/25 06:18:28;;;;;;;3.78;2.85;;;25.90;62.70;;;;;;5054420;28;20491;-62
2023/08/25 06:20:54;;;;;;;3.15;2.63;;;25.90;62.70;;;;;;5072097;28;20063;-62
2023/08/25 06:23:20;;;;;;;4.45;2.95;;;25.90;62.70;;;;;;5061713;28;20032;-64
2023/08/25 06:25:46;;;;;;;3.42;3.00;;;25.90;63.40;;;;;;5051293;28;20414;-62
2023/08/25 06:28:12;;;;;;;4.15;2.53;;;25.90;62.80;;;;;;5047987;28;20445;-63
2023/08/25 06:30:42;;;;;;;4.95;2.85;;;25.90;62.80;;;;;;5058610;28;20072;-64
2023/08/25 06:33:11;;;;;;;4.63;2.58;;;25.90;62.90;;;;;;5057622;28;20412;-63
2023/08/25 06:35:38;;;;;;;3.65;2.85;;;25.90;62.90;;;;;;5055284;28;20112;-65
2023/08/25 06:38:04;;;;;;;3.70;2.90;;;25.90;62.90;;;;;;5055480;28;20036;-67
2023/08/25 06:40:33;;;;;;;3.95;2.72;;;25.90;62.90;;;;;;5056904;28;20078;-65
2023/08/25 06:43:03;;;;;;;4.55;3.53;;;25.90;62.90;;;;;;5052029;28;20406;-63
2023/08/25 06:45:30;;;;;;;4.03;2.97;;;25.90;63.00;;;;;;5050122;28;20043;-65
2023/08/25 06:47:59;;;;;;;6.32;3.15;;;25.90;63.00;;;;;;5056041;28;20058;-62
2023/08/25 06:50:25;;;;;;;4.55;3.13;;;25.90;63.00;;;;;;5036307;28;20064;-63
2023/08/25 06:52:51;;;;;;;4.93;3.42;;;25.90;63.00;;;;;;5032250;28;20077;-65
2023/08/25 06:55:18;;;;;;;5.53;3.05;;;25.90;63.00;;;;;;5029259;28;20390;-62
2023/08/25 06:57:45;;;;;;;4.07;3.03;;;25.90;63.10;;;;;;5034370;28;20191;-66
2023/08/25 07:00:12;;;;;;;4.45;3.08;;;25.90;63.10;;;;;;5041719;28;20420;-62
2023/08/25 07:02:40;;;;;;;3.80;2.92;;;25.90;63.10;;;;;;5028193;28;20412;-64
2023/08/25 07:05:07;;;;;;;4.82;2.60;;;25.90;63.10;;;;;;5029895;28;20036;-65
2023/08/25 07:07:35;;;;;;;4.55;3.10;;;25.90;63.10;;;;;;5027333;28;20033;-65
2023/08/25 07:10:01;;;;;;;4.78;3.30;;;25.90;63.10;;;;;;5028424;28;20450;-65
2023/08/25 07:12:27;;;;;;;3.33;2.58;;;25.90;63.10;;;;;;5051022;28;20105;-65
2023/08/25 07:14:53;;;;;;;6.55;3.47;;;25.90;63.10;;;;;;5035766;28;20179;-63
2023/08/25 07:17:19;;;;;;;4.25;2.55;;;25.90;63.10;;;;;;5025731;28;20036;-63
2023/08/25 07:19:45;;;;;;;3.60;2.83;;;26.00;63.20;;;;;;5026971;28;20112;-62
2023/08/25 07:22:11;;;;;;;3.63;2.90;;;25.90;63.10;;;;;;5028116;28;20481;-63
2023/08/25 07:24:37;;;;;;;4.60;3.00;;;26.00;63.20;;;;;;5029661;28;20045;-63
2023/08/25 07:27:04;;;;;;;4.25;2.90;;;25.90;63.20;;;;;;5034755;28;20025;-63
2023/08/25 07:29:29;;;;;;;5.63;2.88;;;25.90;63.10;;;;;;5050144;28;20036;-63
2023/08/25 07:31:56;;;;;;;3.33;2.80;;;25.90;63.20;;;;;;5052652;28;20055;-65
2023/08/25 07:34:22;;;;;;;5.70;2.88;;;25.90;63.20;;;;;;5048546;28;20021;-64
2023/08/25 07:36:48;;;;;;;4.43;3.13;;;26.00;63.20;;;;;;5039871;28;20106;-63
2023/08/25 07:39:14;;;;;;;4.05;2.97;;;26.00;63.20;;;;;;5049207;28;20108;-64
2023/08/25 07:41:40;;;;;;;3.85;2.88;;;25.90;63.10;;;;;;5036816;28;20365;-63
2023/08/25 07:44:07;;;;;;;4.13;2.60;;;25.90;63.10;;;;;;5024868;28;20037;-64
2023/08/25 07:46:37;;;;;;;3.17;2.83;;;25.90;63.00;;;;;;5013223;28;20034;-66
2023/08/25 07:49:03;;;;;;;3.55;2.78;;;25.90;63.10;;;;;;5061567;28;20063;-62
2023/08/25 07:51:29;;;;;;;2.88;2.63;;;25.90;63.10;;;;;;5069182;28;20043;-63
2023/08/25 07:53:55;;;;;;;3.38;2.80;;;25.90;63.10;;;;;;5078881;28;20028;-65
2023/08/25 07:56:21;;;;;;;4.25;3.10;;;25.90;63.10;;;;;;5086457;28;20102;-63
2023/08/25 07:58:47;;;;;;;4.43;3.03;;;25.90;63.10;;;;;;5063710;28;20033;-65
2023/08/25 08:01:13;;;;;;;3.33;2.90;;;26.00;63.10;;;;;;5069569;28;20384;-62
2023/08/25 08:03:39;;;;;;;4.30;2.95;;;25.90;63.10;;;;;;5080837;28;20020;-65
2023/08/25 08:06:04;;;;;;;3.88;2.95;;;26.00;63.20;;;;;;5071942;28;20662;-64
2023/08/25 08:08:30;;;;;;;4.47;3.22;;;26.00;63.10;;;;;;5065979;28;20075;-66
2023/08/25 08:10:56;;;;;;;4.70;3.20;;;25.90;63.10;;;;;;5068010;28;20383;-66
2023/08/25 08:13:22;;;;;;;3.17;2.78;;;26.00;63.20;;;;;;5054230;28;20342;-65
2023/08/25 08:15:48;;;;;;;4.13;3.42;;;25.90;63.10;;;;;;5091502;28;20136;-64
2023/08/25 08:18:14;;;;;;;4.63;2.90;;;25.90;63.10;;;;;;5078456;28;20039;-64
2023/08/25 08:20:40;;;;;;;3.00;2.67;;;26.00;63.10;;;;;;5074012;28;20036;-65
2023/08/25 08:23:06;;;;;;;3.30;2.92;;;25.90;63.00;;;;;;5070586;28;20214;-65
2023/08/25 08:25:33;;;;;;;4.10;2.60;;;25.90;63.00;;;;;;5067886;28;20035;-64
2023/08/25 08:27:59;;;;;;;3.85;2.72;;;26.00;63.10;;;;;;5089616;28;20028;-66
2023/08/25 08:30:25;;;;;;;3.50;2.72;;;26.00;63.10;;;;;;5091351;28;20533;-65
2023/08/25 08:32:51;;;;;;;2.90;2.50;;;26.00;63.10;;;;;;5092029;28;20169;-66
2023/08/25 08:35:18;;;;;;;2.65;2.28;;;25.90;63.00;;;;;;5071457;28;20032;-64
2023/08/25 08:37:43;;;;;;;3.00;2.40;;;25.90;63.00;;;;;;5092568;28;20126;-63
2023/08/25 08:40:10;;;;;;;3.05;2.28;;;26.00;63.10;;;;;;5091874;28;20075;-64
2023/08/25 08:42:37;;;;;;;2.65;2.30;;;26.00;63.10;;;;;;5086651;28;20036;-65
2023/08/25 08:45:09;;;;;;;2.78;2.38;;;26.00;63.10;;;;;;5073592;28;20355;-66
2023/08/25 08:47:35;;;;;;;3.58;2.55;;;26.00;63.10;;;;;;5089720;28;20515;-64
2023/08/25 08:50:02;;;;;;;4.25;2.63;;;26.00;63.10;;;;;;5092379;28;20028;-66
2023/08/25 08:52:29;;;;;;;4.32;2.38;;;26.00;63.20;;;;;;5086793;28;20031;-63
2023/08/25 08:54:58;;;;;;;3.53;2.78;;;25.90;63.20;;;;;;5090025;28;20081;-66
2023/08/25 08:57:28;;;;;;;4.72;2.60;;;26.00;63.30;;;;;;5075816;28;20100;-64
2023/08/25 08:59:58;;;;;;;4.40;2.60;;;26.00;63.30;;;;;;5069939;28;20025;-64
2023/08/25 09:02:28;;;;;;;4.57;2.50;;;26.00;63.30;;;;;;5049714;28;20047;-63
2023/08/25 09:05:00;;;;;;;3.13;2.58;;;26.00;63.30;;;;;;5078810;28;20024;-67
2023/08/25 09:07:32;;;;;;;3.00;2.65;;;26.00;63.40;;;;;;5068126;28;20059;-67
2023/08/25 09:09:58;;;;;;;3.53;2.58;;;26.00;63.80;;;;;;5072510;28;20452;-66
2023/08/25 09:12:24;;;;;;;3.50;2.90;;;26.00;64.10;;;;;;5084048;28;20044;-66
2023/08/25 09:14:50;;;;;;;3.83;2.88;;;26.00;64.30;;;;;;5088257;28;20105;-64
2023/08/25 09:17:16;;;;;;;3.63;2.50;;;26.00;64.50;;;;;;5074498;28;20086;-66
2023/08/25 09:19:42;;;;;;;3.53;2.75;;;26.00;64.70;;;;;;5075714;28;20100;-65
2023/08/25 09:22:15;;;;;;;3.60;2.72;;;26.00;64.80;;;;;;5074901;28;20108;-65
2023/08/25 09:24:43;;;;;;;3.03;2.40;;;26.00;64.90;;;;;;5072453;28;20033;-64
2023/08/25 09:27:26;;;;;;;3.65;2.95;;;26.00;65.00;;;;;;5082380;28;20179;-63
2023/08/25 09:30:04;;;;;;;5.38;2.60;;;26.00;65.20;;;;;;5055152;28;20112;-63
2023/08/25 09:32:31;;;;;;;2.85;2.50;;;26.00;65.10;;;;;;5057979;28;20347;-62
2023/08/25 09:35:13;;;;;;;3.83;2.45;;;26.00;65.10;;;;;;5080233;28;20033;-67
2023/08/25 09:37:43;;;;;;;3.70;2.80;;;26.00;65.10;;;;;;5082752;28;20067;-67
2023/08/25 09:40:14;;;;;;;3.17;2.28;;;26.00;65.00;;;;;;5061077;28;20031;-67
2023/08/25 09:42:40;;;;;;;3.13;2.45;;;26.00;64.90;;;;;;5057495;28;20102;-66
2023/08/25 09:45:07;;;;;;;3.03;2.22;;;26.00;64.80;;;;;;5095143;28;20346;-68
2023/08/25 09:47:33;;;;;;;2.33;1.98;;;26.10;64.80;;;;;;5049159;28;20049;-65
2023/08/25 09:49:59;;;;;;;2.90;1.90;;;26.10;64.80;;;;;;5015752;28;20060;-66
2023/08/25 09:52:26;;;;;;;2.72;1.92;;;26.10;64.70;;;;;;5032380;28;20110;-66
2023/08/25 09:54:53;;;;;;;1.73;1.58;;;26.10;64.60;;;;;;5034280;28;20352;-64
2023/08/25 09:57:20;;;;;;;3.55;1.73;;;26.10;64.40;;;;;;5032516;28;20034;-66
2023/08/25 09:59:46;;;;;;;2.00;1.52;;;26.10;64.30;;;;;;5046310;28;20045;-67
2023/08/25 10:02:13;;;;;;;2.17;1.45;;;26.10;64.20;;;;;;5052216;28;20041;-64
2023/08/25 10:04:39;;;;;;;2.60;1.48;;;26.10;64.20;;;;;;5051038;28;20432;-65
2023/08/25 10:07:06;;;;;;;2.22;1.40;;;26.10;64.10;;;;;;5025977;28;20044;-67
2023/08/25 10:09:33;;;;;;;1.90;1.30;;;26.10;64.00;;;;;;5032924;28;20045;-66
2023/08/25 10:12:00;;;;;;;1.92;1.40;;;26.20;64.20;;;;;;5031507;28;20426;-64
2023/08/25 10:14:30;;;;;;;1.58;1.30;;;26.20;64.20;;;;;;5031359;28;20483;-65
2023/08/25 10:17:01;;;;;;;1.52;1.05;;;26.10;63.90;;;;;;5025755;28;20029;-64
2023/08/25 10:19:29;;;;;;;1.75;1.00;;;26.10;63.80;;;;;;5030586;28;20471;-65
2023/08/25 10:21:55;;;;;;;1.27;0.85;;;26.10;63.60;;;;;;5030784;28;20116;-66
2023/08/25 10:24:23;;;;;;;1.67;1.00;;;26.10;63.40;;;;;;5030440;28;20036;-65
2023/08/25 10:26:51;;;;;;;1.02;0.90;;;26.10;63.30;;;;;;5070516;28;20031;-64
2023/08/25 10:29:21;;;;;;;1.08;0.88;;;26.10;63.10;;;;;;5069847;28;20151;-67
2023/08/25 10:31:51;;;;;;;1.10;1.00;;;26.10;63.00;;;;;;5053860;28;20028;-66
2023/08/25 10:34:38;;;;;;;1.27;1.00;;;26.10;63.60;;;;;;5073592;28;20453;-65
2023/08/25 10:37:12;;;;;;;1.55;1.20;;;26.20;62.90;;;;;;5068498;28;20350;-67
2023/08/25 10:39:49;;;;;;;1.60;1.10;;;26.20;62.90;;;;;;5073500;28;20344;-67
2023/08/25 10:42:22;;;;;;;1.48;1.02;;;26.20;62.80;;;;;;5047079;28;20355;-66
2023/08/25 10:44:56;;;;;;;1.80;0.80;;;26.20;62.80;;;;;;5055991;28;20025;-65
2023/08/25 10:47:23;;;;;;;1.30;1.00;;;26.20;62.80;;;;;;5065005;28;20091;-65
2023/08/25 10:49:59;;;;;;;1.20;0.90;;;26.20;62.80;;;;;;5069520;28;20111;-66
2023/08/25 10:52:26;;;;;;;1.73;1.00;;;26.20;62.80;;;;;;5056058;28;20025;-65
2023/08/25 10:54:53;;;;;;;0.80;0.70;;;26.30;62.90;;;;;;5054643;28;20123;-66
2023/08/25 10:57:29;;;;;;;1.25;0.98;;;26.20;62.80;;;;;;5074347;28;20032;-65
2023/08/25 10:59:57;;;;;;;1.40;0.82;;;26.30;62.90;;;;;;5065437;28;20032;-68
2023/08/25 11:02:39;;;;;;;0.88;0.70;;;26.30;62.90;;;;;;5072987;28;20090;-67
2023/08/25 11:05:28;;;;;;;1.00;0.75;;;26.30;62.80;;;;;;5052608;28;20108;-67
2023/08/25 11:07:55;;;;;;;1.05;0.70;;;26.30;62.70;;;;;;5060217;28;20518;-66
2023/08/25 11:10:21;;;;;;;1.13;0.70;;;26.30;62.70;;;;;;5071318;28;20027;-66
2023/08/25 11:12:52;;;;;;;0.60;0.57;;;26.40;62.60;;;;;;5070080;28;20130;-64
2023/08/25 11:15:18;;;;;;;0.55;0.50;;;26.40;62.50;;;;;;5075323;28;20442;-66
2023/08/25 11:17:48;;;;;;;1.10;0.77;;;26.40;62.40;;;;;;5072296;28;20063;-66
2023/08/25 11:20:15;;;;;;;0.70;0.63;;;26.40;62.30;;;;;;5060355;28;20048;-66
2023/08/25 11:22:55;;;;;;;1.23;0.70;;;26.40;62.20;;;;;;5032946;28;20029;-68
2023/08/25 11:25:21;;;;;;;1.27;0.73;;;26.40;62.10;;;;;;5070427;28;20077;-66
2023/08/25 11:27:54;;;;;;;2.58;0.77;;;26.40;62.00;;;;;;5057893;28;20054;-66
2023/08/25 11:30:21;;;;;;;1.25;0.80;;;26.40;61.90;;;;;;5071443;28;20039;-65
2023/08/25 11:32:48;;;;;;;1.58;0.77;;;26.40;61.90;;;;;;5069811;28;20040;-65
2023/08/25 11:35:15;;;;;;;0.80;0.70;;;26.40;61.90;;;;;;5051986;28;20029;-67
2023/08/25 11:37:41;;;;;;;1.58;1.20;;;26.40;61.90;;;;;;5069258;28;20043;-65
2023/08/25 11:40:30;;;;;;;1.65;1.00;;;26.40;61.80;;;;;;5070308;28;20028;-66
2023/08/25 11:42:56;;;;;;;1.35;1.00;;;26.40;61.80;;;;;;5068668;28;20033;-65
2023/08/25 11:45:31;;;;;;;1.48;0.90;;;26.40;61.90;;;;;;5070581;28;20125;-66
2023/08/25 11:47:59;;;;;;;1.85;0.90;;;26.50;61.90;;;;;;5066654;28;20074;-68
2023/08/25 11:50:27;;;;;;;1.67;0.80;;;26.50;61.80;;;;;;5069431;28;20323;-66
2023/08/25 11:52:54;;;;;;;2.35;0.90;;;26.60;61.70;;;;;;5065773;28;20074;-65
2023/08/25 11:55:20;;;;;;;0.90;0.85;;;26.70;61.60;;;;;;5077175;28;20035;-68
2023/08/25 11:57:50;;;;;;;1.27;0.82;;;26.70;61.30;;;;;;5058753;28;20024;-65
2023/08/25 12:00:17;;;;;;;1.73;1.20;;;26.90;61.20;;;;;;5073146;28;20097;-65
2023/08/25 12:02:47;;;;;;;0.82;0.65;;;27.00;61.00;;;;;;5072726;28;20144;-65
2023/08/25 12:05:13;;;;;;;3.28;0.90;;;27.00;60.60;;;;;;5048811;28;20107;-67
2023/08/25 12:07:41;;;;;;;1.50;0.90;;;27.10;60.40;;;;;;5066498;28;20127;-67
2023/08/25 12:10:07;;;;;;;1.60;1.20;;;27.20;60.20;;;;;;5072694;28;20046;-63
2023/08/25 12:12:39;;;;;;;1.77;0.95;;;27.30;60.00;;;;;;5069296;28;20035;-68
2023/08/25 12:15:08;;;;;;;3.13;1.00;;;27.40;59.80;;;;;;5071687;28;20087;-70
2023/08/25 12:17:36;;;;;;;1.55;1.02;;;27.50;59.60;;;;;;5065282;28;20036;-72
2023/08/25 12:20:12;;;;;;;1.33;1.00;;;27.60;59.40;;;;;;5049558;28;20048;-70
2023/08/25 12:22:56;;;;;;;1.25;0.93;;;27.60;59.10;;;;;;5071651;28;20107;-71
2023/08/25 12:25:22;;;;;;;2.17;0.90;;;27.70;58.90;;;;;;5069279;28;20043;-69
2023/08/25 12:27:51;;;;;;;1.23;1.00;;;27.80;58.80;;;;;;5049922;28;20333;-68
2023/08/25 12:30:18;;;;;;;1.60;1.00;;;27.90;58.70;;;;;;5054471;28;20162;-67
2023/08/25 12:32:44;;;;;;;3.13;1.20;;;27.90;58.60;;;;;;5076684;28;20055;-67
2023/08/25 12:35:10;;;;;;;1.15;1.05;;;28.00;58.60;;;;;;5075051;28;20093;-64
2023/08/25 12:37:36;;;;;;;3.40;1.20;;;28.00;58.40;;;;;;5073041;28;20024;-68
2023/08/25 12:40:03;;;;;;;2.05;0.95;;;28.10;58.30;;;;;;5071972;28;20096;-67
2023/08/25 12:42:29;;;;;;;1.60;1.45;;;28.10;58.20;;;;;;5074085;28;20130;-70
2023/08/25 12:44:55;;;;;;;5.53;1.13;;;28.20;58.10;;;;;;5066354;28;20054;-71
2023/08/25 12:47:21;;;;;;;1.15;1.05;;;28.20;58.00;;;;;;5071368;28;20042;-71
2023/08/25 12:49:47;;;;;;;2.47;1.10;;;28.30;57.90;;;;;;5048954;28;20042;-66
2023/08/25 12:52:16;;;;;;;1.60;1.20;;;28.30;57.80;;;;;;5071839;28;20051;-65